Time,TemperatureF,DewpointF,PressureIn,WindDirection,WindDirectionDegrees,WindSpeedMPH,WindSpeedGustMPH,Humidity,HourlyPrecipIn,Conditions,Clouds,dailyrainin,SoftwareType,DateUTC
2013-02-01 00:05:00,25.0,20.0,29.81,WSW,246,2.0,-999.0,82,-99.99,,,0.00,weatherlink.com 1.10,2013-02-01 05:05:00,
2013-02-01 00:20:00,24.2,21.0,29.81,SSW,210,3.0,-999.0,87,-99.99,,,0.00,weatherlink.com 1.10,2013-02-01 05:20:00,
2013-02-01 00:36:00,23.7,21.0,29.81,WSW,238,3.0,-999.0,88,-99.99,,,0.00,weatherlink.com 1.10,2013-02-01 05:36:00,
2013-02-01 00:51:00,23.1,20.0,29.81,SW,221,3.0,-999.0,88,-99.99,,,0.00,weatherlink.com 1.10,2013-02-01 05:51:00,
2013-02-01 01:06:00,23.1,20.0,29.81,SSW,209,6.0,-999.0,87,-99.99,,,0.00,weatherlink.com 1.10,2013-02-01 06:06:00,
2013-02-01 01:21:00,23.4,19.0,29.80,SW,223,5.0,-999.0,84,-99.99,,,0.00,weatherlink.com 1.10,2013-02-01 06:21:00,
2013-02-01 01:37:00,23.3,19.0,29.81,SW,225,1.0,-999.0,82,-99.99,,,0.00,weatherlink.com 1.10,2013-02-01 06:37:00,
2013-02-01 01:51:00,23.3,19.0,29.80,SW,217,3.0,-999.0,82,-99.99,,,0.00,weatherlink.com 1.10,2013-02-01 06:51:00,
2013-02-01 02:06:00,23.1,18.0,29.78,SW,219,0.0,-999.0,81,-99.99,,,0.00,weatherlink.com 1.10,2013-02-01 07:06:00,
2013-02-01 02:21:00,22.6,18.0,29.79,SW,219,3.0,-999.0,81,-99.99,,,0.00,weatherlink.com 1.10,2013-02-01 07:21:00,
2013-02-01 02:36:00,22.1,17.0,29.79,SW,218,0.0,-999.0,81,-99.99,,,0.00,weatherlink.com 1.10,2013-02-01 07:36:00,
2013-02-01 02:51:00,22.1,17.0,29.80,SW,234,3.0,-999.0,79,-99.99,,,0.00,weatherlink.com 1.10,2013-02-01 07:51:00,
2013-02-01 03:06:00,22.1,16.0,29.81,SW,221,2.0,-999.0,77,-99.99,,,0.00,weatherlink.com 1.10,2013-02-01 08:06:00,
2013-02-01 03:21:00,22.1,16.0,29.81,SW,215,0.0,-999.0,77,-99.99,,,0.00,weatherlink.com 1.10,2013-02-01 08:21:00,
2013-02-01 03:51:00,21.6,15.0,29.81,SW,215,2.0,-999.0,77,-99.99,,,0.00,weatherlink.com 1.10,2013-02-01 08:51:00,
2013-02-01 04:06:00,21.5,15.0,29.81,SW,219,2.0,-999.0,76,-99.99,,,0.00,weatherlink.com 1.10,2013-02-01 09:06:00,
2013-02-01 04:21:00,21.8,15.0,29.81,SSW,204,2.0,-999.0,74,-99.99,,,0.00,weatherlink.com 1.10,2013-02-01 09:21:00,
2013-02-01 04:36:00,21.6,14.0,29.82,SW,224,0.0,-999.0,73,-99.99,,,0.00,weatherlink.com 1.10,2013-02-01 09:36:00,
2013-02-01 04:51:00,21.4,14.0,29.82,SW,224,0.0,-999.0,73,-99.99,,,0.00,weatherlink.com 1.10,2013-02-01 09:51:00,
2013-02-01 05:06:00,21.1,14.0,29.83,SSW,201,0.0,-999.0,74,-99.99,,,0.00,weatherlink.com 1.10,2013-02-01 10:06:00,
2013-02-01 05:21:00,21.6,14.0,29.84,SW,221,1.0,-999.0,73,-99.99,,,0.00,weatherlink.com 1.10,2013-02-01 10:21:00,
2013-02-01 05:36:00,22.5,14.0,29.84,SW,233,3.0,-999.0,70,-99.99,,,0.00,weatherlink.com 1.10,2013-02-01 10:36:00,
2013-02-01 05:51:00,23.0,14.0,29.86,WSW,242,2.0,-999.0,68,-99.99,,,0.00,weatherlink.com 1.10,2013-02-01 10:51:00,
2013-02-01 06:06:00,23.1,14.0,29.86,WSW,244,5.0,-999.0,67,-99.99,,,0.00,weatherlink.com 1.10,2013-02-01 11:06:00,
2013-02-01 06:21:00,23.2,14.0,29.87,WNW,288,3.0,-999.0,67,-99.99,,,0.00,weatherlink.com 1.10,2013-02-01 11:21:00,
2013-02-01 06:36:00,23.2,13.0,29.88,WNW,296,3.0,-999.0,66,-99.99,,,0.00,weatherlink.com 1.10,2013-02-01 11:36:00,
2013-02-01 06:51:00,23.2,13.0,29.89,WSW,240,5.0,-999.0,66,-99.99,,,0.00,weatherlink.com 1.10,2013-02-01 11:51:00,
2013-02-01 07:07:00,23.2,13.0,29.90,WSW,254,5.0,-999.0,66,-99.99,,,0.00,weatherlink.com 1.10,2013-02-01 12:07:00,
2013-02-01 07:22:00,23.1,14.0,29.91,SW,229,1.0,-999.0,67,-99.99,,,0.00,weatherlink.com 1.10,2013-02-01 12:22:00,
2013-02-01 07:36:00,23.1,14.0,29.92,West,259,4.0,-999.0,68,-99.99,,,0.00,weatherlink.com 1.10,2013-02-01 12:36:00,
2013-02-01 07:51:00,23.0,14.0,29.93,WSW,238,12.0,-999.0,69,-99.99,,,0.00,weatherlink.com 1.10,2013-02-01 12:51:00,
2013-02-01 08:07:00,22.0,16.0,29.94,WSW,238,8.0,-999.0,76,-99.99,,,0.00,weatherlink.com 1.10,2013-02-01 13:07:00,
2013-02-01 08:22:00,21.5,15.0,29.94,NNW,334,5.0,-999.0,77,-99.99,,,0.00,weatherlink.com 1.10,2013-02-01 13:22:00,
2013-02-01 08:37:00,21.7,15.0,29.95,WNW,292,3.0,-999.0,74,-99.99,,,0.00,weatherlink.com 1.10,2013-02-01 13:37:00,
2013-02-01 08:52:00,22.4,14.0,29.95,SW,223,4.0,-999.0,70,-99.99,,,0.00,weatherlink.com 1.10,2013-02-01 13:52:00,
2013-02-01 09:07:00,22.9,13.0,29.95,West,275,3.0,-999.0,66,-99.99,,,0.00,weatherlink.com 1.10,2013-02-01 14:07:00,
2013-02-01 09:22:00,23.7,13.0,29.96,NNW,331,12.0,-999.0,63,-99.99,,,0.00,weatherlink.com 1.10,2013-02-01 14:22:00,
2013-02-01 09:37:00,23.8,12.0,29.96,WNW,290,5.0,-999.0,61,-99.99,,,0.00,weatherlink.com 1.10,2013-02-01 14:37:00,
2013-02-01 09:52:00,23.5,11.0,29.97,West,265,3.0,-999.0,58,-99.99,,,0.00,weatherlink.com 1.10,2013-02-01 14:52:00,
2013-02-01 10:07:00,24.0,11.0,29.98,WNW,296,11.0,-999.0,59,-99.99,,,0.00,weatherlink.com 1.10,2013-02-01 15:07:00,
2013-02-01 10:22:00,24.1,10.0,29.99,NW,310,6.0,-999.0,55,-99.99,,,0.00,weatherlink.com 1.10,2013-02-01 15:22:00,
2013-02-01 10:37:00,24.7,11.0,29.99,NW,307,10.0,-999.0,57,-99.99,,,0.00,weatherlink.com 1.10,2013-02-01 15:37:00,
2013-02-01 10:52:00,24.2,10.0,30.00,WNW,294,8.0,-999.0,55,-99.99,,,0.00,weatherlink.com 1.10,2013-02-01 15:52:00,
2013-02-01 11:07:00,24.2,10.0,30.00,SW,229,6.0,-999.0,54,-99.99,,,0.00,weatherlink.com 1.10,2013-02-01 16:07:00,
2013-02-01 11:24:00,24.7,10.0,30.01,NNW,342,8.0,-999.0,54,-99.99,,,0.00,weatherlink.com 1.10,2013-02-01 16:24:00,
2013-02-01 11:39:00,25.3,10.0,30.01,SW,215,10.0,-999.0,53,-99.99,,,0.00,weatherlink.com 1.10,2013-02-01 16:39:00,
2013-02-01 11:53:00,24.9,10.0,30.01,West,266,1.0,-999.0,53,-99.99,,,0.00,weatherlink.com 1.10,2013-02-01 16:53:00,
2013-02-01 12:08:00,25.2,10.0,30.00,West,277,8.0,-999.0,53,-99.99,,,0.00,weatherlink.com 1.10,2013-02-01 17:08:00,
2013-02-01 12:23:00,25.0,10.0,30.00,NW,309,6.0,-999.0,54,-99.99,,,0.00,weatherlink.com 1.10,2013-02-01 17:23:00,
2013-02-01 12:39:00,25.2,11.0,30.01,SSW,208,2.0,-999.0,55,-99.99,,,0.00,weatherlink.com 1.10,2013-02-01 17:39:00,
2013-02-01 12:53:00,25.5,10.0,30.01,NW,321,9.0,-999.0,52,-99.99,,,0.00,weatherlink.com 1.10,2013-02-01 17:53:00,
2013-02-01 13:24:00,26.2,8.0,30.01,West,272,6.0,-999.0,47,-99.99,,,0.00,weatherlink.com 1.10,2013-02-01 18:24:00,
2013-02-01 13:38:00,26.2,8.0,30.02,NW,304,9.0,-999.0,46,-99.99,,,0.00,weatherlink.com 1.10,2013-02-01 18:38:00,
2013-02-01 13:53:00,27.4,9.0,30.02,WNW,290,8.0,-999.0,46,-99.99,,,0.00,weatherlink.com 1.10,2013-02-01 18:53:00,
2013-02-01 14:10:00,26.9,7.0,30.02,WSW,252,8.0,-999.0,43,-99.99,,,0.00,weatherlink.com 1.10,2013-02-01 19:10:00,
2013-02-01 14:24:00,26.7,7.0,30.03,WSW,242,6.0,-999.0,44,-99.99,,,0.00,weatherlink.com 1.10,2013-02-01 19:24:00,
2013-02-01 14:39:00,26.3,9.0,30.04,West,265,12.0,-999.0,48,-99.99,,,0.00,weatherlink.com 1.10,2013-02-01 19:39:00,
2013-02-01 14:54:00,26.6,8.0,30.05,NW,307,9.0,-999.0,46,-99.99,,,0.00,weatherlink.com 1.10,2013-02-01 19:54:00,
2013-02-01 15:10:00,26.4,8.0,30.05,North,351,7.0,-999.0,46,-99.99,,,0.00,weatherlink.com 1.10,2013-02-01 20:10:00,
2013-02-01 15:25:00,26.2,9.0,30.06,SSW,207,10.0,-999.0,49,-99.99,,,0.00,weatherlink.com 1.10,2013-02-01 20:25:00,
2013-02-01 15:39:00,26.2,8.0,30.07,NW,304,6.0,-999.0,46,-99.99,,,0.00,weatherlink.com 1.10,2013-02-01 20:39:00,
2013-02-01 15:55:00,26.0,7.0,30.08,WNW,295,5.0,-999.0,44,-99.99,,,0.00,weatherlink.com 1.10,2013-02-01 20:55:00,
2013-02-01 16:10:00,26.2,7.0,30.09,West,262,4.0,-999.0,45,-99.99,,,0.00,weatherlink.com 1.10,2013-02-01 21:10:00,
2013-02-01 16:26:00,25.8,8.0,30.10,NW,305,6.0,-999.0,48,-99.99,,,0.00,weatherlink.com 1.10,2013-02-01 21:26:00,
2013-02-01 16:40:00,25.0,10.0,30.11,SW,236,7.0,-999.0,52,-99.99,,,0.00,weatherlink.com 1.10,2013-02-01 21:40:00,
2013-02-01 16:55:00,23.8,10.0,30.12,WNW,295,5.0,-999.0,57,-99.99,,,0.00,weatherlink.com 1.10,2013-02-01 21:55:00,
2013-02-01 17:12:00,23.4,10.0,30.13,WSW,242,9.0,-999.0,57,-99.99,,,0.00,weatherlink.com 1.10,2013-02-01 22:12:00,
2013-02-01 17:27:00,23.1,9.0,30.14,WSW,242,5.0,-999.0,56,-99.99,,,0.00,weatherlink.com 1.10,2013-02-01 22:27:00,
2013-02-01 17:41:00,22.9,11.0,30.15,WSW,240,3.0,-999.0,61,-99.99,,,0.00,weatherlink.com 1.10,2013-02-01 22:41:00,
2013-02-01 17:57:00,22.7,9.0,30.15,West,265,5.0,-999.0,55,-99.99,,,0.00,weatherlink.com 1.10,2013-02-01 22:57:00,
2013-02-01 18:12:00,22.5,9.0,30.16,SW,219,4.0,-999.0,56,-99.99,,,0.00,weatherlink.com 1.10,2013-02-01 23:12:00,
2013-02-01 18:26:00,22.4,8.0,30.17,WSW,246,6.0,-999.0,55,-99.99,,,0.00,weatherlink.com 1.10,2013-02-01 23:26:00,
2013-02-01 18:42:00,22.2,8.0,30.19,NNW,344,5.0,-999.0,55,-99.99,,,0.00,weatherlink.com 1.10,2013-02-01 23:42:00,
2013-02-01 18:57:00,21.7,9.0,30.20,SW,233,5.0,-999.0,59,-99.99,,,0.00,weatherlink.com 1.10,2013-02-01 23:57:00,
2013-02-01 19:12:00,21.3,9.0,30.20,WNW,295,3.0,-999.0,60,-99.99,,,0.00,weatherlink.com 1.10,2013-02-02 00:12:00,
2013-02-01 19:42:00,20.9,9.0,30.22,SW,221,4.0,-999.0,61,-99.99,,,0.00,weatherlink.com 1.10,2013-02-02 00:42:00,
2013-02-01 19:57:00,20.6,9.0,30.23,SSW,203,4.0,-999.0,62,-99.99,,,0.00,weatherlink.com 1.10,2013-02-02 00:57:00,
2013-02-01 20:12:00,20.4,10.0,30.23,SW,217,5.0,-999.0,63,-99.99,,,0.00,weatherlink.com 1.10,2013-02-02 01:12:00,
2013-02-01 20:28:00,20.2,9.0,30.23,SW,224,3.0,-999.0,62,-99.99,,,0.00,weatherlink.com 1.10,2013-02-02 01:28:00,
2013-02-01 20:43:00,20.2,8.0,30.24,SW,219,5.0,-999.0,60,-99.99,,,0.00,weatherlink.com 1.10,2013-02-02 01:43:00,
2013-02-01 20:59:00,20.0,8.0,30.24,SW,233,5.0,-999.0,61,-99.99,,,0.00,weatherlink.com 1.10,2013-02-02 01:59:00,
2013-02-01 21:13:00,19.8,8.0,30.25,SW,215,5.0,-999.0,60,-99.99,,,0.00,weatherlink.com 1.10,2013-02-02 02:13:00,
2013-02-01 21:29:00,19.6,8.0,30.26,West,273,3.0,-999.0,60,-99.99,,,0.00,weatherlink.com 1.10,2013-02-02 02:29:00,
2013-02-01 21:44:00,19.4,7.0,30.26,SW,225,10.0,-999.0,59,-99.99,,,0.00,weatherlink.com 1.10,2013-02-02 02:44:00,
2013-02-01 21:59:00,19.2,7.0,30.27,West,264,6.0,-999.0,59,-99.99,,,0.00,weatherlink.com 1.10,2013-02-02 02:59:00,
2013-02-01 22:13:00,18.9,7.0,30.27,West,261,5.0,-999.0,59,-99.99,,,0.00,weatherlink.com 1.10,2013-02-02 03:13:00,
2013-02-01 22:29:00,18.7,6.0,30.28,NW,318,3.0,-999.0,58,-99.99,,,0.00,weatherlink.com 1.10,2013-02-02 03:29:00,
2013-02-01 22:43:00,18.4,6.0,30.28,SSW,211,7.0,-999.0,59,-99.99,,,0.00,weatherlink.com 1.10,2013-02-02 03:43:00,
2013-02-01 22:58:00,18.3,6.0,30.28,West,278,3.0,-999.0,59,-99.99,,,0.00,weatherlink.com 1.10,2013-02-02 03:58:00,
2013-02-01 23:14:00,18.1,6.0,30.29,SW,216,2.0,-999.0,60,-99.99,,,0.00,weatherlink.com 1.10,2013-02-02 04:14:00,
2013-02-01 23:29:00,18.0,6.0,30.29,WNW,295,3.0,-999.0,60,-99.99,,,0.00,weatherlink.com 1.10,2013-02-02 04:29:00,
2013-02-01 23:44:00,17.8,6.0,30.30,SW,220,5.0,-999.0,60,-99.99,,,0.00,weatherlink.com 1.10,2013-02-02 04:44:00,
2013-02-01 23:59:00,17.7,6.0,30.30,West,272,3.0,-999.0,60,-99.99,,,0.00,weatherlink.com 1.10,2013-02-02 04:59:00,